sensor_id;sensor_type;location;lat;lon;timestamp;pressure;altitude;pressure_sealevel;temperature;humidity
68594;BME280;55563;52.416;13.548;2022-08-21T00:01:30;101124.91;;;19.18;100.00
68594;BME280;55563;52.416;13.548;2022-08-21T00:03:31;101133.09;;;19.22;100.00
68594;BME280;55563;52.416;13.548;2022-08-21T00:05:32;101134.47;;;19.20;100.00
68594;BME280;55563;52.416;13.548;2022-08-21T00:07:33;101130.84;;;19.15;100.00
68594;BME280;55563;52.416;13.548;2022-08-21T00:09:34;101128.47;;;19.14;100.00
68594;BME280;55563;52.416;13.548;2022-08-21T00:11:36;101133.91;;;19.09;100.00
68594;BME280;55563;52.416;13.548;2022-08-21T00:13:38;101116.84;;;19.10;100.00
68594;BME280;55563;52.416;13.548;2022-08-21T00:15:38;101121.88;;;19.11;100.00
68594;BME280;55563;52.416;13.548;2022-08-21T00:17:40;101116.69;;;19.06;100.00
68594;BME280;55563;52.416;13.548;2022-08-21T00:19:41;101107.59;;;19.07;100.00
68594;BME280;55563;52.416;13.548;2022-08-21T00:21:41;101106.31;;;19.05;100.00
68594;BME280;55563;52.416;13.548;2022-08-21T00:23:42;101112.25;;;19.02;100.00
68594;BME280;55563;52.416;13.548;2022-08-21T00:25:43;101112.44;;;19.05;100.00
68594;BME280;55563;52.416;13.548;2022-08-21T00:27:44;101111.75;;;19.00;100.00
68594;BME280;55563;52.416;13.548;2022-08-21T00:29:46;101116.78;;;19.01;100.00
68594;BME280;55563;52.416;13.548;2022-08-21T00:31:47;101116.63;;;18.98;100.00
68594;BME280;55563;52.416;13.548;2022-08-21T00:33:47;101121.44;;;18.96;100.00
68594;BME280;55563;52.416;13.548;2022-08-21T00:35:48;101116.63;;;18.98;100.00
68594;BME280;55563;52.416;13.548;2022-08-21T00:37:49;101115.81;;;18.97;100.00
68594;BME280;55563;52.416;13.548;2022-08-21T00:39:49;101116.13;;;18.96;100.00
68594;BME280;55563;52.416;13.548;2022-08-21T00:41:50;101124.91;;;18.96;100.00
68594;BME280;55563;52.416;13.548;2022-08-21T00:43:51;101121.94;;;18.98;100.00
68594;BME280;55563;52.416;13.548;2022-08-21T00:45:51;101115.81;;;18.97;100.00
68594;BME280;55563;52.416;13.548;2022-08-21T00:47:53;101122.34;;;18.91;100.00
68594;BME280;55563;52.416;13.548;2022-08-21T00:49:55;101126.44;;;18.89;100.00
68594;BME280;55563;52.416;13.548;2022-08-21T00:51:58;101115.94;;;18.92;100.00
68594;BME280;55563;52.416;13.548;2022-08-21T00:54:00;101117.81;;;18.92;100.00
68594;BME280;55563;52.416;13.548;2022-08-21T00:56:02;101119.41;;;18.93;100.00
68594;BME280;55563;52.416;13.548;2022-08-21T00:58:06;101119.81;;;18.86;100.00
68594;BME280;55563;52.416;13.548;2022-08-21T01:00:11;101116.84;;;18.88;100.00
68594;BME280;55563;52.416;13.548;2022-08-21T01:02:13;101124.66;;;18.84;100.00
68594;BME280;55563;52.416;13.548;2022-08-21T01:04:14;101124.56;;;18.89;100.00
68594;BME280;55563;52.416;13.548;2022-08-21T01:06:16;101118.72;;;18.87;100.00
68594;BME280;55563;52.416;13.548;2022-08-21T01:08:17;101123.75;;;18.89;100.00
68594;BME280;55563;52.416;13.548;2022-08-21T01:10:19;101122.19;;;18.88;100.00
68594;BME280;55563;52.416;13.548;2022-08-21T01:12:19;101125.13;;;18.86;100.00
68594;BME280;55563;52.416;13.548;2022-08-21T01:14:20;101123.75;;;18.89;100.00
68594;BME280;55563;52.416;13.548;2022-08-21T01:16:21;101131.88;;;18.84;100.00
68594;BME280;55563;52.416;13.548;2022-08-21T01:18:22;101127.31;;;18.84;100.00
68594;BME280;55563;52.416;13.548;2022-08-21T01:20:23;101133.25;;;18.81;100.00
68594;BME280;55563;52.416;13.548;2022-08-21T01:22:23;101135.84;;;18.72;100.00
68594;BME280;55563;52.416;13.548;2022-08-21T01:24:24;101131.97;;;18.79;100.00
68594;BME280;55563;52.416;13.548;2022-08-21T01:26:28;101132.28;;;18.77;100.00
68594;BME280;55563;52.416;13.548;2022-08-21T01:28:33;101134.94;;;18.77;100.00
68594;BME280;55563;52.416;13.548;2022-08-21T01:30:36;101132.88;;;18.74;100.00
68594;BME280;55563;52.416;13.548;2022-08-21T01:32:37;101136.13;;;18.71;100.00
68594;BME280;55563;52.416;13.548;2022-08-21T01:34:39;101132.31;;;18.63;100.00
68594;BME280;55563;52.416;13.548;2022-08-21T01:36:40;101129.81;;;18.67;100.00
68594;BME280;55563;52.416;13.548;2022-08-21T01:38:41;101138.13;;;18.65;100.00
68594;BME280;55563;52.416;13.548;2022-08-21T01:40:42;101131.22;;;18.64;100.00
68594;BME280;55563;52.416;13.548;2022-08-21T01:42:44;101137.25;;;18.56;100.00
68594;BME280;55563;52.416;13.548;2022-08-21T01:44:45;101131.16;;;18.56;100.00
68594;BME280;55563;52.416;13.548;2022-08-21T01:46:45;101128.00;;;18.54;100.00
68594;BME280;55563;52.416;13.548;2022-08-21T01:48:46;101129.88;;;18.53;100.00
68594;BME280;55563;52.416;13.548;2022-08-21T01:50:47;101126.59;;;18.56;100.00
68594;BME280;55563;52.416;13.548;2022-08-21T01:52:47;101120.00;;;18.54;100.00
68594;BME280;55563;52.416;13.548;2022-08-21T01:54:48;101120.59;;;18.37;100.00
68594;BME280;55563;52.416;13.548;2022-08-21T01:56:51;101122.84;;;18.44;100.00
68594;BME280;55563;52.416;13.548;2022-08-21T01:58:52;101130.22;;;18.47;100.00
68594;BME280;55563;52.416;13.548;2022-08-21T02:00:53;101125.22;;;18.45;100.00
68594;BME280;55563;52.416;13.548;2022-08-21T02:02:54;101123.63;;;18.44;100.00
68594;BME280;55563;52.416;13.548;2022-08-21T02:04:54;101128.56;;;18.51;100.00
68594;BME280;55563;52.416;13.548;2022-08-21T02:06:55;101129.94;;;18.48;100.00
68594;BME280;55563;52.416;13.548;2022-08-21T02:08:56;101123.53;;;18.49;100.00
68594;BME280;55563;52.416;13.548;2022-08-21T02:10:56;101128.69;;;18.46;100.00
68594;BME280;55563;52.416;13.548;2022-08-21T02:12:58;101135.09;;;18.45;100.00
68594;BME280;55563;52.416;13.548;2022-08-21T02:15:00;101135.97;;;18.40;100.00
68594;BME280;55563;52.416;13.548;2022-08-21T02:17:00;101130.03;;;18.43;100.00
68594;BME280;55563;52.416;13.548;2022-08-21T02:19:02;101127.00;;;18.36;100.00
68594;BME280;55563;52.416;13.548;2022-08-21T02:21:04;101126.63;;;18.29;100.00
68594;BME280;55563;52.416;13.548;2022-08-21T02:23:07;101131.84;;;18.34;100.00
68594;BME280;55563;52.416;13.548;2022-08-21T02:25:08;101133.34;;;18.26;100.00
68594;BME280;55563;52.416;13.548;2022-08-21T02:27:09;101129.56;;;18.27;100.00
68594;BME280;55563;52.416;13.548;2022-08-21T02:29:10;101131.56;;;18.22;100.00
68594;BME280;55563;52.416;13.548;2022-08-21T02:31:11;101129.19;;;18.20;100.00
68594;BME280;55563;52.416;13.548;2022-08-21T02:33:12;101125.94;;;18.23;100.00
68594;BME280;55563;52.416;13.548;2022-08-21T02:35:13;101124.16;;;18.19;100.00
68594;BME280;55563;52.416;13.548;2022-08-21T02:37:14;101125.44;;;18.21;100.00
68594;BME280;55563;52.416;13.548;2022-08-21T02:39:15;101122.28;;;18.19;100.00
68594;BME280;55563;52.416;13.548;2022-08-21T02:41:18;101126.44;;;18.12;100.00
68594;BME280;55563;52.416;13.548;2022-08-21T02:43:21;101119.53;;;18.11;100.00
68594;BME280;55563;52.416;13.548;2022-08-21T02:45:22;101121.31;;;18.02;100.00
68594;BME280;55563;52.416;13.548;2022-08-21T02:47:23;101121.50;;;18.05;100.00
68594;BME280;55563;52.416;13.548;2022-08-21T02:49:23;101118.66;;;18.02;100.00
68594;BME280;55563;52.416;13.548;2022-08-21T02:51:24;101121.13;;;17.98;100.00
68594;BME280;55563;52.416;13.548;2022-08-21T02:53:27;101129.00;;;18.03;100.00
68594;BME280;55563;52.416;13.548;2022-08-21T02:55:30;101122.09;;;18.02;100.00
68594;BME280;55563;52.416;13.548;2022-08-21T02:57:32;101126.53;;;17.93;100.00
68594;BME280;55563;52.416;13.548;2022-08-21T02:59:32;101132.16;;;17.92;100.00
68594;BME280;55563;52.416;13.548;2022-08-21T03:01:33;101126.03;;;17.91;100.00
68594;BME280;55563;52.416;13.548;2022-08-21T03:03:33;101131.34;;;17.91;100.00
68594;BME280;55563;52.416;13.548;2022-08-21T03:05:36;101122.59;;;17.91;100.00
68594;BME280;55563;52.416;13.548;2022-08-21T03:07:38;101126.53;;;17.93;100.00
68594;BME280;55563;52.416;13.548;2022-08-21T03:09:39;101127.63;;;17.92;100.00
68594;BME280;55563;52.416;13.548;2022-08-21T03:11:40;101127.91;;;17.91;100.00
68594;BME280;55563;52.416;13.548;2022-08-21T03:13:41;101133.41;;;17.94;100.00
68594;BME280;55563;52.416;13.548;2022-08-21T03:15:42;101120.72;;;17.91;100.00
68594;BME280;55563;52.416;13.548;2022-08-21T03:17:44;101131.94;;;17.88;100.00
68594;BME280;55563;52.416;13.548;2022-08-21T03:19:44;101126.41;;;17.84;100.00
68594;BME280;55563;52.416;13.548;2022-08-21T03:21:45;101130.19;;;17.83;100.00
68594;BME280;55563;52.416;13.548;2022-08-21T03:23:45;101124.25;;;17.73;100.00
68594;BME280;55563;52.416;13.548;2022-08-21T03:25:47;101122.16;;;17.70;100.00
68594;BME280;55563;52.416;13.548;2022-08-21T03:27:48;101121.88;;;17.71;100.00
68594;BME280;55563;52.416;13.548;2022-08-21T03:29:49;101123.97;;;17.74;100.00
68594;BME280;55563;52.416;13.548;2022-08-21T03:31:49;101124.72;;;17.75;100.00
68594;BME280;55563;52.416;13.548;2022-08-21T03:33:50;101124.81;;;17.70;100.00
68594;BME280;55563;52.416;13.548;2022-08-21T03:35:58;101122.75;;;17.67;100.00
68594;BME280;55563;52.416;13.548;2022-08-21T03:38:00;101119.16;;;17.58;100.00
68594;BME280;55563;52.416;13.548;2022-08-21T03:40:03;101121.03;;;17.57;100.00
68594;BME280;55563;52.416;13.548;2022-08-21T03:42:05;101124.38;;;17.49;100.00
68594;BME280;55563;52.416;13.548;2022-08-21T03:44:07;101126.91;;;17.59;100.00
68594;BME280;55563;52.416;13.548;2022-08-21T03:46:07;101127.94;;;17.58;100.00
68594;BME280;55563;52.416;13.548;2022-08-21T03:48:08;101126.34;;;17.57;100.00
68594;BME280;55563;52.416;13.548;2022-08-21T03:50:09;101127.22;;;17.53;100.00
68594;BME280;55563;52.416;13.548;2022-08-21T03:52:09;101130.09;;;17.56;100.00
68594;BME280;55563;52.416;13.548;2022-08-21T03:54:10;101121.13;;;17.52;100.00
68594;BME280;55563;52.416;13.548;2022-08-21T03:56:11;101122.44;;;17.55;100.00
68594;BME280;55563;52.416;13.548;2022-08-21T03:58:11;101129.09;;;17.52;100.00
68594;BME280;55563;52.416;13.548;2022-08-21T04:00:14;101129.09;;;17.52;100.00
68594;BME280;55563;52.416;13.548;2022-08-21T04:02:17;101128.41;;;17.47;100.00
68594;BME280;55563;52.416;13.548;2022-08-21T04:04:19;101130.19;;;17.51;100.00
68594;BME280;55563;52.416;13.548;2022-08-21T04:06:19;101140.00;;;17.51;100.00
68594;BME280;55563;52.416;13.548;2022-08-21T04:08:20;101129.97;;;17.48;100.00
68594;BME280;55563;52.416;13.548;2022-08-21T04:10:21;101139.91;;;17.42;100.00
68594;BME280;55563;52.416;13.548;2022-08-21T04:12:22;101147.00;;;17.47;100.00
68594;BME280;55563;52.416;13.548;2022-08-21T04:14:22;101152.13;;;17.43;100.00
68594;BME280;55563;52.416;13.548;2022-08-21T04:16:23;101147.88;;;17.42;100.00
68594;BME280;55563;52.416;13.548;2022-08-21T04:18:24;101153.78;;;17.39;100.00
68594;BME280;55563;52.416;13.548;2022-08-21T04:20:26;101146.00;;;17.42;100.00
68594;BME280;55563;52.416;13.548;2022-08-21T04:22:26;101155.66;;;17.38;100.00
68594;BME280;55563;52.416;13.548;2022-08-21T04:24:27;101144.91;;;17.30;100.00
68594;BME280;55563;52.416;13.548;2022-08-21T04:26:28;101145.59;;;17.35;100.00
68594;BME280;55563;52.416;13.548;2022-08-21T04:28:28;101149.53;;;17.38;100.00
68594;BME280;55563;52.416;13.548;2022-08-21T04:30:29;101146.59;;;17.39;100.00
68594;BME280;55563;52.416;13.548;2022-08-21T04:32:30;101144.81;;;17.35;100.00
68594;BME280;55563;52.416;13.548;2022-08-21T04:34:31;101150.91;;;17.35;99.87
68594;BME280;55563;52.416;13.548;2022-08-21T04:36:32;101142.34;;;17.38;99.67
68594;BME280;55563;52.416;13.548;2022-08-21T04:38:33;101148.75;;;17.37;99.80
68594;BME280;55563;52.416;13.548;2022-08-21T04:40:34;101145.28;;;17.37;99.60
68594;BME280;55563;52.416;13.548;2022-08-21T04:42:43;101149.13;;;17.31;99.37
68594;BME280;55563;52.416;13.548;2022-08-21T04:44:44;101146.47;;;17.31;98.85
68594;BME280;55563;52.416;13.548;2022-08-21T04:46:47;101142.44;;;17.33;99.51
68594;BME280;55563;52.416;13.548;2022-08-21T04:48:48;101143.75;;;17.36;99.14
68594;BME280;55563;52.416;13.548;2022-08-21T04:53:00;101146.69;;;17.34;99.37
68594;BME280;55563;52.416;13.548;2022-08-21T04:55:01;101145.09;;;17.33;99.44
68594;BME280;55563;52.416;13.548;2022-08-21T04:57:06;101149.63;;;17.33;99.80
68594;BME280;55563;52.416;13.548;2022-08-21T04:59:14;101152.00;;;17.34;99.23
68594;BME280;55563;52.416;13.548;2022-08-21T05:01:20;101154.38;;;17.36;98.76
68594;BME280;55563;52.416;13.548;2022-08-21T05:03:22;101148.63;;;17.29;99.01
68594;BME280;55563;52.416;13.548;2022-08-21T05:05:24;101154.66;;;17.34;98.87
68594;BME280;55563;52.416;13.548;2022-08-21T05:07:28;101151.13;;;17.39;98.50
68594;BME280;55563;52.416;13.548;2022-08-21T05:09:30;101149.91;;;17.31;98.25
68594;BME280;55563;52.416;13.548;2022-08-21T05:11:31;101163.03;;;17.41;98.12
68594;BME280;55563;52.416;13.548;2022-08-21T05:13:33;101151.31;;;17.42;97.94
68594;BME280;55563;52.416;13.548;2022-08-21T05:15:33;101153.97;;;17.42;98.60
68594;BME280;55563;52.416;13.548;2022-08-21T05:17:34;101161.94;;;17.42;98.70
68594;BME280;55563;52.416;13.548;2022-08-21T05:19:35;101161.47;;;17.40;98.20
68594;BME280;55563;52.416;13.548;2022-08-21T05:21:37;101168.78;;;17.49;98.37
68594;BME280;55563;52.416;13.548;2022-08-21T05:23:38;101164.53;;;17.48;98.36
68594;BME280;55563;52.416;13.548;2022-08-21T05:25:39;101173.88;;;17.45;97.78
68594;BME280;55563;52.416;13.548;2022-08-21T05:27:40;101163.81;;;17.42;96.87
68594;BME280;55563;52.416;13.548;2022-08-21T05:29:41;101167.19;;;17.48;96.98
68594;BME280;55563;52.416;13.548;2022-08-21T05:31:43;101171.44;;;17.49;97.67
68594;BME280;55563;52.416;13.548;2022-08-21T05:33:43;101173.22;;;17.53;97.42
68594;BME280;55563;52.416;13.548;2022-08-21T05:35:44;101165.53;;;17.52;97.41
68594;BME280;55563;52.416;13.548;2022-08-21T05:37:45;101165.25;;;17.53;97.33
68594;BME280;55563;52.416;13.548;2022-08-21T05:39:46;101168.69;;;17.54;97.20
68594;BME280;55563;52.416;13.548;2022-08-21T05:41:47;101176.84;;;17.57;97.04
68594;BME280;55563;52.416;13.548;2022-08-21T05:43:48;101168.31;;;17.60;96.79
68594;BME280;55563;52.416;13.548;2022-08-21T05:45:48;101168.63;;;17.59;95.79
68594;BME280;55563;52.416;13.548;2022-08-21T05:47:49;101170.41;;;17.63;96.10
68594;BME280;55563;52.416;13.548;2022-08-21T05:49:50;101165.91;;;17.64;96.06
68594;BME280;55563;52.416;13.548;2022-08-21T05:51:50;101175.22;;;17.61;96.59
68594;BME280;55563;52.416;13.548;2022-08-21T05:53:51;101169.44;;;17.59;95.64
68594;BME280;55563;52.416;13.548;2022-08-21T05:55:52;101169.34;;;17.64;96.20
68594;BME280;55563;52.416;13.548;2022-08-21T05:57:52;101172.47;;;17.66;96.37
68594;BME280;55563;52.416;13.548;2022-08-21T05:59:53;101173.63;;;17.60;95.74
68594;BME280;55563;52.416;13.548;2022-08-21T06:01:53;101169.91;;;17.61;95.76
68594;BME280;55563;52.416;13.548;2022-08-21T06:03:54;101168.31;;;17.60;95.46
68594;BME280;55563;52.416;13.548;2022-08-21T06:05:55;101181.06;;;17.63;95.01
68594;BME280;55563;52.416;13.548;2022-08-21T06:07:56;101178.00;;;17.70;95.15
68594;BME280;55563;52.416;13.548;2022-08-21T06:09:57;101181.16;;;17.72;95.09
68594;BME280;55563;52.416;13.548;2022-08-21T06:11:58;101171.50;;;17.76;95.17
68594;BME280;55563;52.416;13.548;2022-08-21T06:13:59;101174.97;;;17.76;94.88
68594;BME280;55563;52.416;13.548;2022-08-21T06:16:04;101177.34;;;17.78;94.16
68594;BME280;55563;52.416;13.548;2022-08-21T06:18:06;101175.75;;;17.77;93.44
68594;BME280;55563;52.416;13.548;2022-08-21T06:20:07;101185.72;;;17.85;93.67
68594;BME280;55563;52.416;13.548;2022-08-21T06:22:07;101182.84;;;17.81;94.15
68594;BME280;55563;52.416;13.548;2022-08-21T06:24:08;101182.78;;;17.86;93.34
68594;BME280;55563;52.416;13.548;2022-08-21T06:26:11;101180.72;;;17.83;92.86
68594;BME280;55563;52.416;13.548;2022-08-21T06:28:12;101186.03;;;17.83;92.36
68594;BME280;55563;52.416;13.548;2022-08-21T06:30:13;101181.69;;;17.88;92.60
68594;BME280;55563;52.416;13.548;2022-08-21T06:32:14;101184.19;;;17.98;92.19
68594;BME280;55563;52.416;13.548;2022-08-21T06:34:15;101187.13;;;17.96;92.60
68594;BME280;55563;52.416;13.548;2022-08-21T06:36:16;101190.06;;;18.08;91.97
68594;BME280;55563;52.416;13.548;2022-08-21T06:38:17;101182.78;;;18.14;92.08
68594;BME280;55563;52.416;13.548;2022-08-21T06:40:18;101196.59;;;18.16;91.81
68594;BME280;55563;52.416;13.548;2022-08-21T06:42:29;101192.53;;;18.18;90.17
68594;BME280;55563;52.416;13.548;2022-08-21T06:44:30;101185.53;;;18.22;90.11
68594;BME280;55563;52.416;13.548;2022-08-21T06:46:32;101193.84;;;18.21;89.75
68594;BME280;55563;52.416;13.548;2022-08-21T06:48:32;101189.69;;;18.28;88.84
68594;BME280;55563;52.416;13.548;2022-08-21T06:50:34;101190.19;;;18.30;88.05
68594;BME280;55563;52.416;13.548;2022-08-21T06:52:36;101189.03;;;18.37;87.25
68594;BME280;55563;52.416;13.548;2022-08-21T06:54:38;101178.94;;;18.47;88.22
68594;BME280;55563;52.416;13.548;2022-08-21T06:56:39;101191.59;;;18.55;87.43
68594;BME280;55563;52.416;13.548;2022-08-21T06:58:40;101191.69;;;18.64;87.01
68594;BME280;55563;52.416;13.548;2022-08-21T07:00:43;101190.50;;;18.70;87.24
68594;BME280;55563;52.416;13.548;2022-08-21T07:02:44;101185.44;;;18.82;85.88
68594;BME280;55563;52.416;13.548;2022-08-21T07:04:44;101190.44;;;18.97;84.95
68594;BME280;55563;52.416;13.548;2022-08-21T07:06:45;101183.59;;;19.05;85.06
68594;BME280;55563;52.416;13.548;2022-08-21T07:08:46;101181.59;;;19.10;83.77
68594;BME280;55563;52.416;13.548;2022-08-21T07:10:48;101187.59;;;19.16;83.39
68594;BME280;55563;52.416;13.548;2022-08-21T07:12:50;101177.34;;;19.09;82.30
68594;BME280;55563;52.416;13.548;2022-08-21T07:14:51;101180.72;;;19.37;81.93
68594;BME280;55563;52.416;13.548;2022-08-21T07:16:52;101178.63;;;19.34;82.17
68594;BME280;55563;52.416;13.548;2022-08-21T07:18:52;101183.34;;;19.51;81.38
68594;BME280;55563;52.416;13.548;2022-08-21T07:20:54;101185.75;;;19.61;81.50
68594;BME280;55563;52.416;13.548;2022-08-21T07:22:57;101187.41;;;19.35;79.70
68594;BME280;55563;52.416;13.548;2022-08-21T07:24:59;101187.38;;;19.26;80.37
68594;BME280;55563;52.416;13.548;2022-08-21T07:27:00;101185.34;;;19.45;80.45
68594;BME280;55563;52.416;13.548;2022-08-21T07:29:01;101176.41;;;19.50;81.94
68594;BME280;55563;52.416;13.548;2022-08-21T07:31:03;101177.16;;;19.28;83.12
68594;BME280;55563;52.416;13.548;2022-08-21T07:33:04;101176.41;;;19.50;81.50
68594;BME280;55563;52.416;13.548;2022-08-21T07:35:05;101173.47;;;19.51;79.75
68594;BME280;55563;52.416;13.548;2022-08-21T07:37:06;101171.50;;;19.66;79.89
68594;BME280;55563;52.416;13.548;2022-08-21T07:41:37;101176.19;;;19.60;77.39
68594;BME280;55563;52.416;13.548;2022-08-21T07:43:37;101169.53;;;19.80;78.29
68594;BME280;55563;52.416;13.548;2022-08-21T07:45:38;101181.00;;;19.80;78.12
68594;BME280;55563;52.416;13.548;2022-08-21T07:47:40;101179.19;;;19.67;76.87
68594;BME280;55563;52.416;13.548;2022-08-21T07:49:42;101177.44;;;19.93;78.42
68594;BME280;55563;52.416;13.548;2022-08-21T07:51:44;101176.19;;;20.30;77.65
68594;BME280;55563;52.416;13.548;2022-08-21T07:53:52;101176.69;;;20.01;77.77
68594;BME280;55563;52.416;13.548;2022-08-21T07:56:03;101171.31;;;19.93;76.46
68594;BME280;55563;52.416;13.548;2022-08-21T07:58:45;101173.22;;;20.01;76.75
68594;BME280;55563;52.416;13.548;2022-08-21T08:02:31;101178.31;;;20.20;75.67
68594;BME280;55563;52.416;13.548;2022-08-21T08:05:04;101175.03;;;20.14;76.33
68594;BME280;55563;52.416;13.548;2022-08-21T08:07:22;101180.84;;;20.25;74.77
68594;BME280;55563;52.416;13.548;2022-08-21T08:10:43;101175.63;;;20.51;74.01
68594;BME280;55563;52.416;13.548;2022-08-21T08:13:03;101171.50;;;20.44;74.48
68594;BME280;55563;52.416;13.548;2022-08-21T08:16:44;101164.66;;;20.95;72.79
68594;BME280;55563;52.416;13.548;2022-08-21T08:19:30;101175.13;;;20.49;71.42
68594;BME280;55563;52.416;13.548;2022-08-21T08:23:57;101183.94;;;20.49;71.52
68594;BME280;55563;52.416;13.548;2022-08-21T08:26:27;101184.88;;;20.53;70.97
68594;BME280;55563;52.416;13.548;2022-08-21T08:29:17;101189.47;;;20.53;72.13
68594;BME280;55563;52.416;13.548;2022-08-21T08:31:33;101184.28;;;20.56;71.73
68594;BME280;55563;52.416;13.548;2022-08-21T08:33:38;101180.97;;;20.68;70.90
68594;BME280;55563;52.416;13.548;2022-08-21T08:36:12;101178.50;;;20.80;71.30
68594;BME280;55563;52.416;13.548;2022-08-21T08:38:27;101180.97;;;20.59;71.27
68594;BME280;55563;52.416;13.548;2022-08-21T08:41:06;101176.59;;;20.80;69.37
68594;BME280;55563;52.416;13.548;2022-08-21T08:43:28;101173.44;;;20.87;68.80
68594;BME280;55563;52.416;13.548;2022-08-21T08:45:44;101175.81;;;20.71;68.00
68594;BME280;55563;52.416;13.548;2022-08-21T08:47:59;101177.22;;;20.69;68.81
68594;BME280;55563;52.416;13.548;2022-08-21T08:51:08;101179.28;;;20.98;70.42
68594;BME280;55563;52.416;13.548;2022-08-21T08:53:05;101175.63;;;20.68;67.81
68594;BME280;55563;52.416;13.548;2022-08-21T08:55:44;101169.81;;;20.66;68.21
68594;BME280;55563;52.416;13.548;2022-08-21T08:58:16;101175.97;;;20.83;68.48
68594;BME280;55563;52.416;13.548;2022-08-21T09:01:13;101167.94;;;20.75;66.83
68594;BME280;55563;52.416;13.548;2022-08-21T09:03:52;101165.72;;;20.60;66.07
68594;BME280;55563;52.416;13.548;2022-08-21T09:07:21;101165.88;;;20.63;69.11
68594;BME280;55563;52.416;13.548;2022-08-21T09:20:08;101161.34;;;20.89;67.97
68594;BME280;55563;52.416;13.548;2022-08-21T09:25:10;101164.50;;;20.92;69.37
68594;BME280;55563;52.416;13.548;2022-08-21T09:27:06;101168.88;;;20.96;68.46
68594;BME280;55563;52.416;13.548;2022-08-21T09:29:10;101166.84;;;21.10;67.36
68594;BME280;55563;52.416;13.548;2022-08-21T09:31:26;101164.00;;;21.41;66.89
68594;BME280;55563;52.416;13.548;2022-08-21T09:33:28;101167.94;;;21.35;67.64
68594;BME280;55563;52.416;13.548;2022-08-21T09:35:28;101164.50;;;21.43;65.04
68594;BME280;55563;52.416;13.548;2022-08-21T09:37:31;101156.97;;;21.28;65.69
68594;BME280;55563;52.416;13.548;2022-08-21T09:39:39;101167.31;;;21.29;66.84
68594;BME280;55563;52.416;13.548;2022-08-21T09:41:40;101164.97;;;21.37;67.40
68594;BME280;55563;52.416;13.548;2022-08-21T09:43:41;101174.13;;;21.18;66.33
68594;BME280;55563;52.416;13.548;2022-08-21T09:46:20;101164.16;;;21.02;66.07
68594;BME280;55563;52.416;13.548;2022-08-21T09:48:23;101170.94;;;21.25;66.70
68594;BME280;55563;52.416;13.548;2022-08-21T09:50:26;101167.34;;;21.38;66.12
68594;BME280;55563;52.416;13.548;2022-08-21T09:52:27;101173.31;;;21.26;66.00
68594;BME280;55563;52.416;13.548;2022-08-21T09:54:32;101163.09;;;21.28;64.38
68594;BME280;55563;52.416;13.548;2022-08-21T09:56:38;101164.78;;;21.50;65.42
68594;BME280;55563;52.416;13.548;2022-08-21T09:58:58;101159.75;;;21.57;66.69
68594;BME280;55563;52.416;13.548;2022-08-21T10:01:00;101165.59;;;21.42;64.67
68594;BME280;55563;52.416;13.548;2022-08-21T10:03:19;101172.19;;;21.36;63.42
68594;BME280;55563;52.416;13.548;2022-08-21T10:05:25;101157.91;;;21.32;64.58
68594;BME280;55563;52.416;13.548;2022-08-21T10:07:30;101165.91;;;21.32;60.87
68594;BME280;55563;52.416;13.548;2022-08-21T10:10:23;101165.41;;;21.56;60.86
68594;BME280;55563;52.416;13.548;2022-08-21T10:12:21;101162.59;;;21.52;63.73
68594;BME280;55563;52.416;13.548;2022-08-21T10:14:44;101160.50;;;21.66;62.19
68594;BME280;55563;52.416;13.548;2022-08-21T10:17:14;101166.78;;;21.70;63.20
68594;BME280;55563;52.416;13.548;2022-08-21T10:19:29;101156.56;;;21.64;62.63
68594;BME280;55563;52.416;13.548;2022-08-21T10:24:23;101160.00;;;21.64;61.46
68594;BME280;55563;52.416;13.548;2022-08-21T10:29:28;101163.13;;;21.75;62.62
68594;BME280;55563;52.416;13.548;2022-08-21T10:31:51;101166.09;;;21.91;59.27
68594;BME280;55563;52.416;13.548;2022-08-21T10:34:19;101160.72;;;21.91;61.48
68594;BME280;55563;52.416;13.548;2022-08-21T10:38:58;101161.94;;;22.10;62.04
68594;BME280;55563;52.416;13.548;2022-08-21T10:41:28;101158.22;;;22.24;59.64
68594;BME280;55563;52.416;13.548;2022-08-21T10:43:50;101154.53;;;22.37;61.65
68594;BME280;55563;52.416;13.548;2022-08-21T10:46:17;101159.03;;;22.24;60.71
68594;BME280;55563;52.416;13.548;2022-08-21T10:48:33;101157.16;;;22.45;60.55
68594;BME280;55563;52.416;13.548;2022-08-21T10:50:52;101168.56;;;22.63;61.13
68594;BME280;55563;52.416;13.548;2022-08-21T10:55:51;101166.94;;;22.12;59.62
68594;BME280;55563;52.416;13.548;2022-08-21T11:00:12;101164.56;;;22.19;60.28
68594;BME280;55563;52.416;13.548;2022-08-21T11:02:27;101160.34;;;22.39;59.89
68594;BME280;55563;52.416;13.548;2022-08-21T11:04:36;101171.06;;;22.39;60.25
68594;BME280;55563;52.416;13.548;2022-08-21T11:06:42;101159.03;;;22.45;59.28
68594;BME280;55563;52.416;13.548;2022-08-21T11:08:48;101171.19;;;22.72;59.46
68594;BME280;55563;52.416;13.548;2022-08-21T11:10:59;101166.16;;;22.70;59.91
68594;BME280;55563;52.416;13.548;2022-08-21T11:13:05;101164.91;;;22.68;58.94
68594;BME280;55563;52.416;13.548;2022-08-21T11:15:33;101157.81;;;22.42;54.96
68594;BME280;55563;52.416;13.548;2022-08-21T11:17:43;101158.84;;;22.29;55.25
68594;BME280;55563;52.416;13.548;2022-08-21T11:19:52;101157.75;;;22.51;57.85
68594;BME280;55563;52.416;13.548;2022-08-21T11:21:58;101154.25;;;22.00;55.82